createdAt,value
2023-03-13T00:01:48.740Z,0.70
2023-03-13T00:06:51.334Z,1.00
2023-03-13T00:11:54.031Z,1.17
2023-03-13T00:16:57.204Z,1.02
2023-03-13T00:21:59.849Z,1.00
2023-03-13T00:27:04.771Z,0.85
2023-03-13T00:37:10.261Z,0.60
2023-03-13T00:42:13.062Z,0.60
2023-03-13T00:47:15.692Z,0.70
2023-03-13T00:52:19.201Z,0.60
2023-03-13T00:57:21.791Z,0.88
2023-03-13T01:02:24.548Z,1.20
2023-03-13T01:07:29.019Z,1.27
2023-03-13T01:12:31.588Z,1.10
2023-03-13T01:17:34.150Z,0.70
2023-03-13T01:22:36.852Z,1.00
2023-03-13T01:27:39.397Z,2.75
2023-03-13T01:32:42.112Z,6.15
2023-03-13T01:37:44.765Z,12.25
2023-03-13T01:42:59.411Z,12.10
2023-03-13T01:48:04.160Z,12.88
2023-03-13T01:53:25.541Z,8.45
2023-03-13T01:58:30.043Z,7.72
2023-03-13T02:03:33.287Z,6.40
2023-03-13T02:08:49.402Z,4.60
2023-03-13T02:13:53.683Z,3.20
2023-03-13T02:18:56.910Z,3.67
2023-03-13T02:24:41.643Z,2.38
2023-03-13T02:29:44.797Z,3.00
2023-03-13T02:34:51.069Z,2.30
2023-03-13T02:39:55.031Z,1.88
2023-03-13T02:44:57.927Z,1.17
2023-03-13T02:50:00.524Z,1.60
2023-03-13T02:55:24.325Z,1.17
2023-03-13T03:00:27.795Z,1.40
2023-03-13T03:05:31.194Z,1.55
2023-03-13T03:10:37.430Z,1.55
2023-03-13T03:15:40.854Z,1.70
2023-03-13T03:20:43.683Z,2.33
2023-03-13T03:25:47.968Z,3.05
2023-03-13T03:30:50.925Z,7.63
2023-03-13T03:36:01.994Z,3.75
2023-03-13T03:41:06.448Z,2.53
2023-03-13T03:46:10.890Z,2.00
2023-03-13T03:51:14.465Z,3.50
2023-03-13T03:56:20.666Z,4.90
2023-03-13T04:01:28.772Z,6.55
2023-03-13T04:06:31.580Z,7.20
2023-03-13T04:11:34.852Z,9.45
2023-03-13T04:16:37.651Z,15.05
2023-03-13T04:21:40.801Z,19.30
2023-03-13T04:26:50.191Z,16.45
2023-03-13T04:31:52.958Z,11.02
2023-03-13T04:37:14.125Z,9.18
2023-03-13T04:42:35.684Z,5.82
2023-03-13T04:47:38.544Z,4.70
2023-03-13T04:52:59.898Z,3.63
2023-03-13T04:58:19.144Z,3.40
2023-03-13T05:03:42.847Z,3.13
2023-03-13T05:09:20.871Z,5.18
2023-03-13T05:14:46.660Z,5.82
2023-03-13T05:20:11.275Z,6.22
2023-03-13T05:25:52.826Z,6.10
2023-03-13T05:31:14.225Z,6.68
2023-03-13T05:36:30.319Z,6.28
2023-03-13T05:41:51.681Z,5.68
2023-03-13T05:46:54.285Z,5.18
2023-03-13T05:52:26.309Z,5.63
2023-03-13T05:57:48.354Z,5.22
2023-03-13T06:03:16.982Z,5.07
2023-03-13T06:08:22.132Z,5.10
2023-03-13T06:13:25.781Z,5.43
2023-03-13T06:18:31.064Z,4.65
2023-03-13T06:23:33.852Z,3.08
2023-03-13T06:28:36.450Z,3.10
2023-03-13T06:33:39.259Z,8.40
2023-03-13T06:38:42.155Z,3.00
2023-03-13T06:43:45.060Z,1.67
2023-03-13T06:48:47.915Z,2.00
2023-03-13T06:53:52.661Z,2.65
2023-03-13T06:58:58.014Z,2.13
2023-03-13T07:04:02.371Z,2.95
2023-03-13T07:09:08.440Z,3.20
2023-03-13T07:14:16.988Z,2.58
2023-03-13T07:19:20.118Z,2.70
2023-03-13T07:24:22.953Z,2.47
2023-03-13T07:29:25.756Z,2.38
2023-03-13T07:34:28.663Z,2.35
2023-03-13T07:39:31.978Z,1.60
2023-03-13T07:44:35.102Z,1.90
2023-03-13T07:49:44.127Z,1.80
2023-03-13T07:54:49.300Z,6.82
2023-03-13T07:59:52.205Z,16.13
2023-03-13T08:04:55.592Z,3.28
2023-03-13T08:09:59.322Z,7.68
2023-03-13T08:15:01.961Z,9.30
2023-03-13T08:20:07.815Z,9.55
2023-03-13T08:25:10.706Z,3.80
2023-03-13T08:30:13.988Z,1.02
2023-03-13T08:35:16.662Z,0.85
2023-03-13T08:40:19.324Z,1.40
2023-03-13T08:45:21.993Z,2.38
2023-03-13T08:50:24.851Z,1.27
2023-03-13T08:55:27.969Z,0.90
2023-03-13T09:00:31.296Z,0.80
2023-03-13T09:05:46.151Z,0.70
2023-03-13T09:11:00.859Z,1.27
2023-03-13T09:16:13.066Z,0.77
2023-03-13T09:21:31.081Z,1.30
2023-03-13T09:26:33.648Z,1.17
2023-03-13T09:31:36.307Z,1.30
2023-03-13T09:36:38.927Z,1.17
2023-03-13T09:41:57.664Z,0.60
2023-03-13T09:47:09.630Z,0.82
2023-03-13T09:52:26.879Z,1.10
2023-03-13T09:57:45.181Z,0.60
2023-03-13T10:03:11.785Z,0.73
2023-03-13T10:08:25.540Z,0.52
2023-03-13T10:14:00.382Z,0.63
2023-03-13T10:19:14.040Z,0.60
2023-03-13T10:24:35.650Z,1.27
2023-03-13T10:29:38.791Z,1.10
2023-03-13T10:34:59.030Z,0.63
2023-03-13T10:40:26.066Z,0.35
2023-03-13T10:45:35.609Z,0.50
2023-03-13T10:50:41.438Z,0.20
2023-03-13T10:55:45.308Z,0.63
2023-03-13T11:00:48.106Z,0.52
2023-03-13T11:06:00.635Z,1.15
2023-03-13T11:11:11.023Z,0.57
2023-03-13T11:16:26.315Z,0.57
2023-03-13T11:22:42.139Z,1.05
2023-03-13T11:28:19.866Z,0.73
2023-03-13T11:33:37.893Z,0.40
2023-03-13T11:38:44.538Z,0.50
2023-03-13T11:44:29.779Z,0.30
2023-03-13T11:49:57.895Z,1.00
2023-03-13T11:55:25.505Z,0.47
2023-03-13T12:00:39.174Z,0.75
2023-03-13T12:05:55.387Z,0.80
2023-03-13T12:11:06.731Z,0.70
2023-03-13T12:16:21.889Z,0.60
2023-03-13T12:21:35.685Z,0.50
2023-03-13T12:26:48.270Z,0.50
2023-03-13T12:32:17.226Z,1.02
2023-03-13T12:37:34.120Z,0.30
2023-03-13T12:43:02.749Z,0.80
2023-03-13T12:48:17.254Z,0.82
2023-03-13T12:53:47.733Z,0.52
2023-03-13T12:58:58.330Z,0.60
2023-03-13T13:04:12.604Z,0.50
2023-03-13T13:10:11.661Z,1.23
2023-03-13T13:15:20.433Z,1.88
2023-03-13T13:20:40.768Z,0.93
2023-03-13T13:25:43.402Z,1.98
2023-03-13T13:30:46.135Z,1.25
2023-03-13T13:36:23.395Z,1.45
2023-03-13T13:41:35.214Z,1.45
2023-03-13T13:46:44.217Z,0.75
2023-03-13T13:52:07.084Z,2.25
2023-03-13T13:57:37.163Z,0.60
2023-03-13T14:02:51.286Z,1.42
2023-03-13T14:08:13.456Z,20.95
2023-03-13T14:13:21.636Z,2.45
2023-03-13T14:18:25.251Z,0.80
2023-03-13T14:23:44.417Z,1.92
2023-03-13T14:28:55.594Z,1.00
2023-03-13T14:34:02.576Z,1.23
2023-03-13T14:39:05.375Z,1.33
2023-03-13T14:44:17.153Z,1.27
2023-03-13T14:49:25.676Z,1.25
2023-03-13T14:54:52.365Z,1.45
2023-03-13T14:59:56.484Z,2.03
2023-03-13T15:05:01.434Z,1.40
2023-03-13T15:15:22.582Z,1.40
2023-03-13T15:20:25.431Z,1.17
2023-03-13T15:25:28.175Z,0.93
2023-03-13T15:30:31.068Z,1.30
2023-03-13T15:35:34.872Z,1.77
2023-03-13T15:40:37.539Z,1.17
2023-03-13T15:45:43.053Z,2.20
2023-03-13T15:51:06.092Z,1.58
2023-03-13T15:56:20.331Z,1.00
2023-03-13T16:01:23.905Z,1.20
2023-03-13T16:06:33.417Z,1.70
2023-03-13T16:11:36.681Z,1.20
2023-03-13T16:16:40.508Z,1.30
2023-03-13T16:21:48.374Z,1.83
2023-03-13T16:26:51.098Z,1.50
2023-03-13T16:31:53.708Z,1.20
2023-03-13T16:36:56.382Z,0.90
2023-03-13T16:41:58.965Z,1.60
2023-03-13T16:47:06.076Z,1.00
2023-03-13T16:52:15.940Z,1.20
2023-03-13T16:57:26.375Z,1.00
2023-03-13T17:02:29.686Z,1.20
2023-03-13T17:07:32.569Z,1.17
2023-03-13T17:12:37.885Z,0.75
2023-03-13T17:17:41.540Z,1.10
2023-03-13T17:22:44.470Z,1.20
2023-03-13T17:27:48.571Z,1.50
2023-03-13T17:32:51.946Z,1.20
2023-03-13T17:37:54.614Z,1.00
2023-03-13T17:42:58.338Z,2.25
2023-03-13T17:48:00.970Z,2.45
2023-03-13T17:53:03.561Z,4.15
2023-03-13T17:58:06.148Z,4.68
2023-03-13T18:03:08.738Z,8.38
2023-03-13T18:08:12.201Z,5.85
2023-03-13T18:13:14.787Z,5.82
2023-03-13T18:18:18.579Z,2.40
2023-03-13T18:23:21.496Z,2.17
2023-03-13T18:28:24.491Z,1.60
2023-03-13T18:33:28.282Z,2.30
2023-03-13T18:38:31.078Z,1.63
2023-03-13T18:43:33.642Z,1.50
2023-03-13T18:48:36.363Z,1.65
2023-03-13T18:53:39.467Z,1.60
2023-03-13T18:58:43.220Z,1.75
2023-03-13T19:03:46.827Z,1.43
2023-03-13T19:08:54.821Z,1.83
2023-03-13T19:13:58.424Z,2.00
2023-03-13T19:19:01.826Z,2.00
2023-03-13T19:24:05.097Z,1.88
2023-03-13T19:29:15.430Z,1.63
2023-03-13T19:34:18.816Z,3.35
2023-03-13T19:39:25.272Z,1.88
2023-03-13T19:44:28.519Z,1.95
2023-03-13T19:49:31.524Z,1.83
2023-03-13T19:54:34.156Z,1.77
2023-03-13T19:59:39.005Z,2.28
2023-03-13T20:04:45.301Z,2.30
2023-03-13T20:09:48.796Z,1.30
2023-03-13T20:14:52.101Z,2.70
2023-03-13T20:19:55.178Z,2.00
2023-03-13T20:24:57.949Z,1.50
2023-03-13T20:30:01.600Z,1.52
2023-03-13T20:35:10.784Z,1.38
2023-03-13T20:40:14.068Z,1.63
2023-03-13T20:45:16.933Z,1.67
2023-03-13T20:50:19.866Z,1.60
2023-03-13T20:55:22.852Z,1.55
2023-03-13T21:00:26.556Z,1.80
2023-03-13T21:05:43.292Z,1.23
2023-03-13T21:10:52.571Z,1.70
2023-03-13T21:16:02.534Z,2.03
2023-03-13T21:21:19.025Z,1.30
2023-03-13T21:26:22.475Z,1.85
2023-03-13T21:31:25.447Z,1.60
2023-03-13T21:36:28.305Z,2.25
2023-03-13T21:41:35.186Z,1.70
2023-03-13T21:46:58.004Z,1.20
2023-03-13T21:52:00.596Z,1.50
2023-03-13T21:57:03.256Z,0.98
2023-03-13T22:02:14.260Z,0.70
2023-03-13T22:07:20.351Z,0.75
2023-03-13T22:12:26.056Z,0.90
2023-03-13T22:17:29.308Z,0.75
2023-03-13T22:22:32.869Z,0.50
2023-03-13T22:27:36.356Z,0.75
2023-03-13T22:32:39.720Z,1.00
2023-03-13T22:37:48.776Z,0.88
2023-03-13T22:42:52.845Z,1.50
2023-03-13T22:47:58.610Z,1.10
2023-03-13T22:53:05.231Z,0.90
2023-03-13T22:58:08.437Z,0.73
2023-03-13T23:03:25.827Z,1.55
2023-03-13T23:08:31.488Z,1.85
2023-03-13T23:13:34.680Z,1.00
2023-03-13T23:18:41.980Z,1.40
2023-03-13T23:23:51.608Z,1.08
2023-03-13T23:29:00.445Z,2.28
2023-03-13T23:34:10.695Z,3.80
2023-03-13T23:39:17.400Z,2.67
2023-03-13T23:44:23.777Z,1.73
2023-03-13T23:49:28.773Z,1.70
2023-03-13T23:54:32.127Z,2.70
2023-03-13T23:59:38.356Z,2.10
